createdAt,value
2023-03-21T00:00:33.950Z,14.60
2023-03-21T00:03:00.572Z,14.82
2023-03-21T00:05:27.050Z,16.20
2023-03-21T00:07:53.641Z,16.15
2023-03-21T00:10:32.982Z,14.38
2023-03-21T00:13:05.701Z,14.82
2023-03-21T00:15:42.651Z,16.85
2023-03-21T00:18:15.800Z,17.15
2023-03-21T00:20:47.329Z,15.00
2023-03-21T00:23:13.739Z,15.63
2023-03-21T00:25:40.314Z,15.90
2023-03-21T00:28:08.556Z,15.18
2023-03-21T00:30:35.412Z,15.20
2023-03-21T00:33:08.952Z,19.10
2023-03-21T00:36:12.467Z,15.82
2023-03-21T00:38:36.943Z,16.90
2023-03-21T00:41:17.690Z,17.13
2023-03-21T00:43:47.710Z,15.85
2023-03-21T00:46:14.220Z,18.58
2023-03-21T00:48:40.579Z,18.25
2023-03-21T00:51:21.412Z,16.00
2023-03-21T00:53:47.836Z,13.43
2023-03-21T00:56:14.161Z,15.25
2023-03-21T00:58:40.670Z,16.88
2023-03-21T01:01:09.525Z,13.48
2023-03-21T01:03:42.597Z,17.17
2023-03-21T01:06:13.747Z,13.07
2023-03-21T01:08:58.360Z,20.02
2023-03-21T01:11:28.336Z,14.57
2023-03-21T01:14:07.308Z,15.23
2023-03-21T01:16:37.786Z,21.40
2023-03-21T01:19:09.293Z,17.65
2023-03-21T01:21:41.190Z,18.00
2023-03-21T01:24:07.924Z,15.35
2023-03-21T01:26:34.453Z,15.32
2023-03-21T01:29:00.864Z,18.83
2023-03-21T01:31:27.287Z,18.10
2023-03-21T01:33:53.866Z,15.05
2023-03-21T01:36:23.988Z,15.45
2023-03-21T01:38:51.761Z,16.60
2023-03-21T01:41:41.897Z,14.85
2023-03-21T01:44:15.508Z,20.05
2023-03-21T01:47:03.647Z,15.57
2023-03-21T01:49:40.779Z,14.90
2023-03-21T01:52:23.549Z,18.30
2023-03-21T01:54:55.384Z,16.25
2023-03-21T01:57:40.394Z,19.05
2023-03-21T02:00:12.842Z,16.55
2023-03-21T02:02:58.238Z,16.70
2023-03-21T02:05:38.807Z,16.67
2023-03-21T02:08:05.584Z,16.15
2023-03-21T02:10:32.858Z,14.77
2023-03-21T02:13:09.319Z,15.20
2023-03-21T02:15:43.947Z,19.88
2023-03-21T02:18:33.319Z,16.00
2023-03-21T02:21:11.862Z,17.83
2023-03-21T02:24:12.576Z,16.48
2023-03-21T02:27:04.305Z,17.70
2023-03-21T02:29:58.988Z,16.90
2023-03-21T02:32:48.694Z,15.52
2023-03-21T02:35:23.906Z,16.58
2023-03-21T02:38:00.785Z,15.80
2023-03-21T02:40:38.067Z,14.55
2023-03-21T02:43:22.515Z,19.83
2023-03-21T02:45:57.939Z,15.63
2023-03-21T02:48:50.574Z,17.85
2023-03-21T02:51:21.076Z,16.80
2023-03-21T02:54:13.010Z,15.73
2023-03-21T02:56:41.370Z,17.38
2023-03-21T02:59:08.807Z,19.27
2023-03-21T03:01:35.919Z,17.60
2023-03-21T03:04:02.499Z,17.58
2023-03-21T03:06:47.779Z,20.33
2023-03-21T03:09:32.380Z,17.50
2023-03-21T03:12:16.575Z,17.27
2023-03-21T03:15:05.139Z,21.45
2023-03-21T03:17:52.657Z,16.40
2023-03-21T03:20:36.576Z,17.88
2023-03-21T03:23:25.999Z,19.52
2023-03-21T03:25:58.399Z,22.08
2023-03-21T03:28:35.508Z,16.67
2023-03-21T03:31:09.278Z,18.30
2023-03-21T03:33:40.837Z,19.42
2023-03-21T03:36:21.500Z,17.88
2023-03-21T03:38:56.322Z,19.58
2023-03-21T03:41:26.772Z,19.08
2023-03-21T03:43:56.346Z,19.60
2023-03-21T03:46:33.270Z,19.65
2023-03-21T03:49:11.938Z,17.40
2023-03-21T03:52:02.963Z,17.83
2023-03-21T03:54:38.340Z,20.15
2023-03-21T03:57:06.594Z,16.20
2023-03-21T03:59:37.225Z,21.80
2023-03-21T04:02:04.750Z,20.88
2023-03-21T04:04:31.731Z,22.02
2023-03-21T04:06:58.376Z,19.90
2023-03-21T04:09:42.704Z,21.02
2023-03-21T04:12:10.460Z,21.67
2023-03-21T04:14:44.479Z,18.20
2023-03-21T04:17:12.065Z,18.45
2023-03-21T04:19:38.502Z,24.92
2023-03-21T04:22:04.842Z,20.35
2023-03-21T04:24:33.781Z,22.02
2023-03-21T04:27:00.851Z,20.00
2023-03-21T04:29:29.550Z,20.63
2023-03-21T04:31:56.250Z,19.80
2023-03-21T04:34:23.990Z,19.55
2023-03-21T04:36:50.869Z,16.83
2023-03-21T04:39:18.300Z,23.75
2023-03-21T04:41:46.252Z,21.92
2023-03-21T04:44:14.409Z,23.30
2023-03-21T04:46:41.767Z,18.50
2023-03-21T04:49:08.311Z,24.95
2023-03-21T04:51:35.854Z,27.67
2023-03-21T04:54:02.316Z,20.17
2023-03-21T04:56:33.787Z,18.30
2023-03-21T04:59:09.718Z,21.63
2023-03-21T05:04:04.401Z,16.67
2023-03-21T05:06:30.792Z,21.08
2023-03-21T05:09:01.664Z,19.98
2023-03-21T05:11:32.255Z,18.35
2023-03-21T05:13:59.534Z,19.35
2023-03-21T05:16:30.354Z,23.90
2023-03-21T05:18:59.071Z,22.15
2023-03-21T05:21:29.339Z,23.23
2023-03-21T05:23:58.210Z,20.38
2023-03-21T05:26:25.115Z,22.85
2023-03-21T05:28:51.481Z,25.13
2023-03-21T05:31:19.258Z,26.00
2023-03-21T05:33:46.506Z,27.35
2023-03-21T05:36:13.813Z,24.30
2023-03-21T05:38:45.665Z,23.92
2023-03-21T05:41:14.004Z,22.75
2023-03-21T05:43:40.554Z,24.40
2023-03-21T05:46:07.614Z,29.17
2023-03-21T05:48:34.653Z,23.75
2023-03-21T05:51:01.984Z,27.98
2023-03-21T05:53:28.350Z,28.55
2023-03-21T05:55:54.771Z,26.95
2023-03-21T05:58:21.122Z,26.45
2023-03-21T06:00:47.623Z,26.25
2023-03-21T06:03:15.286Z,28.48
2023-03-21T06:05:41.639Z,25.92
2023-03-21T06:08:08.003Z,25.70
2023-03-21T06:10:34.404Z,23.35
2023-03-21T06:13:00.916Z,27.90
2023-03-21T06:15:27.364Z,28.00
2023-03-21T06:17:53.788Z,29.95
2023-03-21T06:20:20.147Z,27.05
2023-03-21T06:22:46.548Z,26.73
2023-03-21T06:25:12.921Z,27.42
2023-03-21T06:27:39.360Z,28.33
2023-03-21T06:30:06.780Z,30.10
2023-03-21T06:32:33.129Z,22.48
2023-03-21T06:34:59.581Z,29.25
2023-03-21T06:37:28.662Z,25.58
2023-03-21T06:39:55.673Z,26.25
2023-03-21T06:42:22.197Z,23.85
2023-03-21T06:44:48.753Z,27.95
2023-03-21T06:47:15.810Z,24.50
2023-03-21T06:49:43.636Z,27.33
2023-03-21T06:52:10.867Z,27.15
2023-03-21T06:54:37.344Z,25.05
2023-03-21T06:57:03.696Z,29.65
2023-03-21T06:59:30.129Z,24.85
2023-03-21T07:01:56.777Z,26.55
2023-03-21T07:04:23.199Z,22.77
2023-03-21T07:06:49.645Z,24.42
2023-03-21T07:09:17.910Z,30.10
2023-03-21T07:11:44.269Z,23.00
2023-03-21T07:14:10.595Z,26.02
2023-03-21T07:16:37.110Z,27.67
2023-03-21T07:19:04.300Z,20.05
2023-03-21T07:21:31.182Z,26.65
2023-03-21T07:23:57.696Z,22.60
2023-03-21T07:26:24.043Z,23.77
2023-03-21T07:28:50.508Z,27.65
2023-03-21T07:31:17.682Z,22.52
2023-03-21T07:33:44.082Z,25.17
2023-03-21T07:36:12.978Z,22.52
2023-03-21T07:38:41.026Z,22.77
2023-03-21T07:41:07.696Z,19.42
2023-03-21T07:43:34.758Z,22.02
2023-03-21T07:46:02.781Z,20.73
2023-03-21T07:48:29.813Z,18.98
2023-03-21T07:50:56.397Z,20.55
2023-03-21T07:53:23.107Z,21.60
2023-03-21T07:55:55.581Z,22.98
2023-03-21T07:58:23.401Z,20.15
2023-03-21T08:00:49.997Z,22.58
2023-03-21T08:03:16.769Z,20.20
2023-03-21T08:05:44.165Z,18.30
2023-03-21T08:08:11.001Z,19.08
2023-03-21T08:10:37.408Z,20.83
2023-03-21T08:13:04.146Z,20.85
2023-03-21T08:15:31.403Z,17.77
2023-03-21T08:17:59.369Z,21.15
2023-03-21T08:20:25.827Z,18.98
2023-03-21T08:22:52.332Z,17.05
2023-03-21T08:25:22.386Z,17.90
2023-03-21T08:27:49.266Z,20.48
2023-03-21T08:30:18.937Z,19.15
2023-03-21T08:32:45.617Z,20.10
2023-03-21T08:35:13.549Z,17.75
2023-03-21T08:37:41.303Z,18.40
2023-03-21T08:40:13.665Z,20.83
2023-03-21T08:42:41.433Z,19.83
2023-03-21T08:45:09.487Z,18.83
2023-03-21T08:47:36.039Z,17.83
2023-03-21T08:50:03.775Z,18.73
2023-03-21T08:52:30.255Z,19.98
2023-03-21T08:54:56.593Z,16.75
2023-03-21T08:57:23.171Z,18.60
2023-03-21T08:59:49.657Z,17.88
2023-03-21T09:02:17.392Z,16.48
2023-03-21T09:04:44.915Z,14.93
2023-03-21T09:07:17.073Z,18.60
2023-03-21T09:09:43.756Z,16.35
2023-03-21T09:12:11.257Z,18.95
2023-03-21T09:14:37.725Z,16.52
2023-03-21T09:17:04.197Z,20.67
2023-03-21T09:19:31.891Z,17.52
2023-03-21T09:21:58.699Z,15.73
2023-03-21T09:24:26.658Z,16.42
2023-03-21T09:26:53.197Z,19.00
2023-03-21T09:29:21.322Z,17.90
2023-03-21T09:31:48.329Z,21.90
2023-03-21T09:34:15.742Z,14.50
2023-03-21T09:36:44.122Z,16.15
2023-03-21T09:39:15.839Z,15.50
2023-03-21T09:41:57.839Z,14.70
2023-03-21T09:44:55.563Z,18.52
2023-03-21T09:47:34.695Z,14.98
2023-03-21T09:50:14.458Z,17.10
2023-03-21T09:53:01.079Z,15.90
2023-03-21T09:55:40.269Z,21.23
2023-03-21T09:58:09.894Z,17.00
2023-03-21T10:00:40.214Z,17.17
2023-03-21T10:03:20.186Z,14.73
2023-03-21T10:05:48.507Z,15.43
2023-03-21T10:08:27.169Z,16.05
2023-03-21T10:11:03.645Z,13.95
2023-03-21T10:13:34.055Z,11.55
2023-03-21T10:16:06.566Z,14.13
2023-03-21T10:18:33.373Z,11.90
2023-03-21T10:21:01.134Z,15.80
2023-03-21T10:23:41.881Z,15.75
2023-03-21T10:26:09.388Z,13.38
2023-03-21T10:28:52.442Z,16.05
2023-03-21T10:31:25.422Z,15.48
2023-03-21T10:33:54.935Z,16.63
2023-03-21T10:36:29.091Z,18.95
2023-03-21T10:39:16.070Z,16.35
2023-03-21T10:41:43.381Z,15.73
2023-03-21T10:44:16.693Z,14.80
2023-03-21T10:46:54.903Z,15.40
2023-03-21T10:49:21.730Z,16.65
2023-03-21T10:52:04.917Z,13.98
2023-03-21T10:54:35.541Z,14.75
2023-03-21T10:57:11.834Z,15.68
2023-03-21T10:59:49.353Z,16.48
2023-03-21T11:02:26.358Z,13.73
2023-03-21T11:04:55.645Z,15.32
2023-03-21T11:07:25.406Z,14.02
2023-03-21T11:09:58.961Z,12.70
2023-03-21T11:12:39.765Z,12.65
2023-03-21T11:15:15.283Z,11.93
2023-03-21T11:17:42.073Z,14.93
2023-03-21T11:20:11.327Z,13.75
2023-03-21T11:22:43.741Z,16.50
2023-03-21T11:25:22.887Z,15.13
2023-03-21T11:28:21.143Z,12.40
2023-03-21T11:30:56.709Z,15.23
2023-03-21T11:33:31.781Z,11.35
2023-03-21T11:39:49.918Z,13.13
2023-03-21T11:45:15.214Z,13.02
2023-03-21T11:47:42.054Z,11.80
2023-03-21T11:50:34.405Z,13.73
2023-03-21T11:53:20.842Z,12.77
2023-03-21T11:59:04.859Z,12.02
2023-03-21T12:01:40.343Z,9.52
2023-03-21T12:04:31.888Z,11.10
2023-03-21T12:07:26.305Z,12.40
2023-03-21T12:10:01.631Z,13.40
2023-03-21T12:12:42.049Z,13.77
2023-03-21T12:15:55.602Z,13.35
2023-03-21T12:18:58.879Z,14.02
2023-03-21T12:22:03.067Z,14.32
2023-03-21T12:24:38.412Z,13.98
2023-03-21T12:27:36.945Z,11.48
2023-03-21T12:30:23.715Z,13.27
2023-03-21T12:33:02.001Z,11.73
2023-03-21T12:35:42.318Z,11.73
2023-03-21T12:38:28.423Z,14.10
2023-03-21T12:41:03.858Z,12.27
2023-03-21T12:43:55.657Z,14.63
2023-03-21T12:46:40.575Z,12.38
2023-03-21T12:49:18.126Z,12.77
2023-03-21T12:51:48.645Z,12.25
2023-03-21T12:54:25.131Z,11.48
2023-03-21T12:57:28.745Z,11.70
2023-03-21T13:00:13.887Z,11.48
2023-03-21T13:02:55.436Z,13.55
2023-03-21T13:05:33.407Z,12.05
2023-03-21T13:08:12.198Z,10.23
2023-03-21T13:10:40.246Z,11.02
2023-03-21T13:13:37.666Z,11.65
2023-03-21T13:16:33.324Z,10.98
2023-03-21T13:19:18.222Z,11.25
2023-03-21T13:22:07.200Z,8.88
2023-03-21T13:25:07.493Z,10.90
2023-03-21T13:27:36.624Z,11.43
2023-03-21T13:30:19.317Z,9.68
2023-03-21T13:32:49.706Z,7.97
2023-03-21T13:35:16.479Z,10.02
2023-03-21T13:37:51.857Z,9.27
2023-03-21T13:40:42.772Z,9.90
2023-03-21T13:43:31.690Z,9.63
2023-03-21T13:46:06.364Z,8.40
2023-03-21T13:48:59.745Z,10.63
2023-03-21T13:51:29.376Z,8.68
2023-03-21T13:54:02.966Z,9.38
2023-03-21T13:56:30.643Z,6.55
2023-03-21T13:59:03.359Z,8.10
2023-03-21T14:01:39.367Z,6.03
2023-03-21T14:04:16.644Z,7.57
2023-03-21T14:06:51.284Z,9.98
2023-03-21T14:09:36.138Z,9.77
2023-03-21T14:12:08.078Z,6.38
2023-03-21T14:14:41.812Z,6.53
2023-03-21T14:17:20.965Z,8.52
2023-03-21T14:19:52.717Z,5.88
2023-03-21T14:22:19.093Z,7.47
2023-03-21T14:24:54.769Z,8.25
2023-03-21T14:27:22.084Z,5.97
2023-03-21T14:29:51.273Z,7.35
2023-03-21T14:32:22.499Z,8.90
2023-03-21T14:34:49.366Z,8.75
2023-03-21T14:37:28.416Z,8.27
2023-03-21T14:40:06.369Z,10.65
2023-03-21T14:42:38.120Z,9.20
2023-03-21T14:45:17.174Z,7.88
2023-03-21T14:48:01.796Z,7.75
2023-03-21T14:50:34.727Z,8.80
2023-03-21T14:53:01.359Z,7.95
2023-03-21T14:55:28.622Z,8.35
2023-03-21T14:57:56.445Z,10.32
2023-03-21T15:00:29.159Z,8.95
2023-03-21T15:02:59.073Z,7.65
2023-03-21T15:05:31.345Z,8.05
2023-03-21T15:08:06.904Z,6.82
2023-03-21T15:10:33.535Z,8.13
2023-03-21T15:13:02.935Z,7.95
2023-03-21T15:15:31.684Z,6.53
2023-03-21T15:18:03.698Z,7.45
2023-03-21T15:20:33.908Z,6.43
2023-03-21T15:23:17.471Z,6.15
2023-03-21T15:25:45.238Z,5.43
2023-03-21T15:28:14.334Z,6.88
2023-03-21T15:30:48.838Z,6.07
2023-03-21T15:33:15.778Z,6.18
2023-03-21T15:35:54.024Z,6.68
2023-03-21T15:38:41.081Z,6.97
2023-03-21T15:41:15.590Z,7.28
2023-03-21T15:43:42.211Z,9.80
2023-03-21T15:46:42.691Z,6.80
2023-03-21T15:49:13.044Z,5.45
2023-03-21T15:51:42.884Z,6.50
2023-03-21T15:54:15.200Z,5.45
2023-03-21T15:56:46.424Z,5.25
2023-03-21T15:59:17.978Z,7.55
2023-03-21T16:01:49.121Z,6.45
2023-03-21T16:04:18.347Z,5.38
2023-03-21T16:07:00.198Z,5.82
2023-03-21T16:09:26.941Z,6.43
2023-03-21T16:11:58.825Z,4.97
2023-03-21T16:14:29.850Z,6.00
2023-03-21T16:16:58.940Z,6.22
2023-03-21T16:19:27.613Z,4.70
2023-03-21T16:21:53.959Z,5.00
2023-03-21T16:24:20.263Z,3.38
2023-03-21T16:26:50.712Z,5.57
2023-03-21T16:29:18.516Z,6.15
2023-03-21T16:31:47.508Z,7.00
2023-03-21T16:34:13.866Z,5.53
2023-03-21T16:36:43.203Z,6.15
2023-03-21T16:39:25.276Z,4.18
2023-03-21T16:41:52.012Z,5.13
2023-03-21T16:44:19.544Z,7.82
2023-03-21T16:46:47.249Z,7.93
2023-03-21T16:49:24.803Z,5.82
2023-03-21T16:51:52.150Z,5.18
2023-03-21T16:54:18.569Z,8.60
2023-03-21T16:56:51.771Z,6.75
2023-03-21T16:59:18.368Z,5.18
2023-03-21T17:01:48.729Z,5.40
2023-03-21T17:04:17.691Z,4.95
2023-03-21T17:06:50.038Z,4.60
2023-03-21T17:09:19.671Z,5.43
2023-03-21T17:11:46.120Z,5.72
2023-03-21T17:14:14.122Z,5.15
2023-03-21T17:16:42.827Z,5.07
2023-03-21T17:19:15.344Z,6.40
2023-03-21T17:21:41.976Z,5.82
2023-03-21T17:24:08.817Z,7.78
2023-03-21T17:26:36.582Z,5.75
2023-03-21T17:29:03.918Z,5.85
2023-03-21T17:31:36.836Z,4.75
2023-03-21T17:34:04.562Z,5.18
2023-03-21T17:36:34.797Z,4.93
2023-03-21T17:39:06.943Z,6.47
2023-03-21T17:41:33.530Z,4.90
2023-03-21T17:44:00.246Z,5.43
2023-03-21T17:46:29.075Z,6.63
2023-03-21T17:48:56.091Z,4.95
2023-03-21T17:51:26.016Z,4.75
2023-03-21T17:53:52.536Z,5.32
2023-03-21T17:56:27.891Z,6.72
2023-03-21T17:58:54.501Z,4.80
2023-03-21T18:01:21.221Z,6.78
2023-03-21T18:03:47.680Z,6.57
2023-03-21T18:06:17.529Z,7.95
2023-03-21T18:08:45.302Z,5.25
2023-03-21T18:11:15.286Z,7.65
2023-03-21T18:13:45.419Z,6.57
2023-03-21T18:16:14.996Z,6.18
2023-03-21T18:18:41.652Z,4.90
2023-03-21T18:21:10.662Z,4.85
2023-03-21T18:23:38.397Z,4.50
2023-03-21T18:26:06.485Z,6.78
2023-03-21T18:28:33.115Z,6.00
2023-03-21T18:31:19.278Z,6.65
2023-03-21T18:36:16.790Z,7.35
2023-03-21T18:38:43.561Z,6.88
2023-03-21T18:41:10.477Z,5.18
2023-03-21T18:46:24.301Z,9.18
2023-03-21T18:48:51.771Z,5.47
2023-03-21T18:51:19.227Z,6.03
2023-03-21T18:53:45.803Z,7.03
2023-03-21T18:56:46.860Z,7.57
2023-03-21T18:58:59.286Z,5.45
2023-03-21T19:01:26.294Z,6.88
2023-03-21T19:04:16.476Z,5.78
2023-03-21T19:06:46.500Z,6.30
2023-03-21T19:09:14.467Z,7.90
2023-03-21T19:11:43.765Z,5.70
2023-03-21T19:14:11.547Z,6.57
2023-03-21T19:17:07.038Z,5.60
2023-03-21T19:19:27.100Z,6.40
2023-03-21T19:21:54.301Z,7.35
2023-03-21T19:24:27.641Z,6.80
2023-03-21T19:26:55.463Z,8.40
2023-03-21T19:29:22.100Z,5.82
2023-03-21T19:31:50.960Z,10.43
2023-03-21T19:34:18.683Z,5.53
2023-03-21T19:36:50.738Z,5.55
2023-03-21T19:39:21.898Z,5.97
2023-03-21T19:41:48.759Z,5.65
2023-03-21T19:44:15.363Z,5.97
2023-03-21T19:46:41.904Z,6.68
2023-03-21T19:49:08.236Z,10.38
2023-03-21T19:51:34.948Z,5.97
2023-03-21T19:54:04.354Z,5.80
2023-03-21T19:56:31.656Z,6.32
2023-03-21T19:58:58.754Z,7.78
2023-03-21T20:01:26.266Z,5.65
2023-03-21T20:03:53.121Z,7.38
2023-03-21T20:06:22.075Z,6.47
2023-03-21T20:14:03.002Z,5.15
2023-03-21T20:16:34.943Z,7.10
2023-03-21T20:19:03.015Z,7.70
2023-03-21T20:21:46.196Z,5.88
2023-03-21T20:26:45.036Z,7.78
2023-03-21T20:30:03.899Z,7.38
2023-03-21T20:31:58.444Z,6.88
2023-03-21T20:34:24.917Z,6.68
2023-03-21T20:36:51.442Z,9.23
2023-03-21T20:39:17.950Z,8.93
2023-03-21T20:41:44.327Z,8.80
2023-03-21T20:46:57.483Z,10.52
2023-03-21T20:49:24.291Z,11.00
2023-03-21T20:52:49.429Z,10.57
2023-03-21T20:54:37.871Z,6.78
2023-03-21T20:57:05.043Z,7.18
2023-03-21T20:59:31.583Z,7.40
2023-03-21T21:01:58.514Z,7.80
2023-03-21T21:04:46.742Z,9.20
2023-03-21T21:07:17.249Z,7.57
2023-03-21T21:09:45.264Z,6.30
2023-03-21T21:12:13.630Z,8.25
2023-03-21T21:14:41.003Z,8.98
2023-03-21T21:19:54.353Z,8.02
2023-03-21T21:22:20.891Z,9.75
2023-03-21T21:24:47.264Z,8.50
2023-03-21T21:27:13.848Z,8.57
2023-03-21T21:29:43.149Z,9.15
2023-03-21T21:32:09.746Z,10.32
2023-03-21T21:34:37.055Z,9.82
2023-03-21T21:37:03.676Z,6.80
2023-03-21T21:39:35.865Z,8.32
2023-03-21T21:42:02.515Z,8.18
2023-03-21T21:44:28.914Z,7.85
2023-03-21T21:46:55.556Z,8.73
2023-03-21T21:49:21.935Z,9.32
2023-03-21T21:51:48.343Z,11.02
2023-03-21T21:54:18.010Z,8.93
2023-03-21T21:56:48.224Z,8.48
2023-03-21T21:59:18.283Z,8.20
2023-03-21T22:01:46.524Z,10.07
2023-03-21T22:04:14.220Z,10.20
2023-03-21T22:06:42.326Z,8.40
2023-03-21T22:09:09.456Z,8.82
2023-03-21T22:11:36.408Z,7.65
2023-03-21T22:14:03.651Z,7.80
2023-03-21T22:16:30.274Z,8.13
2023-03-21T22:18:56.704Z,8.93
2023-03-21T22:21:23.427Z,8.70
2023-03-21T22:23:49.890Z,8.88
2023-03-21T22:26:16.600Z,9.27
2023-03-21T22:28:43.627Z,8.98
2023-03-21T22:31:13.432Z,9.55
2023-03-21T22:33:39.949Z,10.43
2023-03-21T22:36:06.774Z,9.63
2023-03-21T22:38:34.602Z,11.27
2023-03-21T22:41:03.897Z,10.23
2023-03-21T22:43:33.994Z,9.82
2023-03-21T22:46:02.426Z,9.27
2023-03-21T22:48:30.136Z,9.02
2023-03-21T22:50:57.774Z,9.10
2023-03-21T22:53:24.833Z,11.43
2023-03-21T22:55:51.466Z,7.63
2023-03-21T22:58:18.204Z,8.80
2023-03-21T23:00:44.652Z,7.75
2023-03-21T23:03:12.869Z,8.32
2023-03-21T23:05:41.069Z,10.63
2023-03-21T23:08:07.662Z,8.65
2023-03-21T23:10:36.745Z,7.95
2023-03-21T23:13:03.812Z,9.50
2023-03-21T23:15:30.264Z,10.73
2023-03-21T23:17:56.648Z,9.15
2023-03-21T23:20:23.005Z,7.72
2023-03-21T23:22:49.328Z,9.65
2023-03-21T23:25:15.670Z,7.85
2023-03-21T23:27:42.411Z,9.23
2023-03-21T23:30:09.037Z,8.32
2023-03-21T23:32:35.410Z,8.07
2023-03-21T23:35:01.779Z,9.68
2023-03-21T23:37:29.952Z,7.43
2023-03-21T23:39:56.533Z,10.13
2023-03-21T23:42:23.738Z,9.00
2023-03-21T23:44:50.482Z,10.63
2023-03-21T23:47:17.180Z,10.35
2023-03-21T23:49:49.154Z,9.02
2023-03-21T23:52:16.108Z,7.78
2023-03-21T23:54:42.439Z,7.55
2023-03-21T23:57:08.834Z,8.82
2023-03-21T23:59:35.240Z,9.25
